Time,TemperatureF,DewpointF,PressureIn,WindDirection,WindDirectionDegrees,WindSpeedMPH,WindSpeedGustMPH,Humidity,HourlyPrecipIn,Conditions,Clouds,dailyrainin,SoftwareType,DateUTC
2013-10-23 00:04:00,36.6,36.0,29.92,NE,38,3.0,4.0,96,0.00,,,0.00,weatherlink.com 1.10,2013-10-23 05:04:00,
2013-10-23 00:19:00,36.0,35.0,29.92,NE,37,0.0,2.0,96,0.00,,,0.00,weatherlink.com 1.10,2013-10-23 05:19:00,
2013-10-23 00:34:00,35.5,35.0,29.91,NE,38,1.0,3.0,96,0.00,,,0.00,weatherlink.com 1.10,2013-10-23 05:34:00,
2013-10-23 00:49:00,34.9,34.0,29.91,NE,38,1.0,4.0,96,0.00,,,0.00,weatherlink.com 1.10,2013-10-23 05:49:00,
2013-10-23 01:04:00,34.6,34.0,29.91,NE,36,2.0,4.0,96,0.00,,,0.00,weatherlink.com 1.10,2013-10-23 06:04:00,
2013-10-23 01:19:00,34.4,33.0,29.91,NE,34,2.0,4.0,96,0.00,,,0.00,weatherlink.com 1.10,2013-10-23 06:19:00,
2013-10-23 01:34:00,34.2,34.0,29.91,NNE,31,2.0,4.0,97,0.00,,,0.00,weatherlink.com 1.10,2013-10-23 06:34:00,
2013-10-23 01:49:00,34.1,33.0,29.91,NNE,31,2.0,4.0,97,0.00,,,0.00,weatherlink.com 1.10,2013-10-23 06:49:00,
2013-10-23 02:04:00,33.7,33.0,29.91,NNE,30,2.0,4.0,97,0.00,,,0.00,weatherlink.com 1.10,2013-10-23 07:04:00,
2013-10-23 02:19:00,33.5,33.0,29.91,North,11,3.0,8.0,97,0.00,,,0.00,weatherlink.com 1.10,2013-10-23 07:19:00,
2013-10-23 02:34:00,33.2,33.0,29.91,North,3,1.0,7.0,97,0.00,,,0.00,weatherlink.com 1.10,2013-10-23 07:34:00,
2013-10-23 02:49:00,33.0,32.0,29.91,North,359,2.0,7.0,97,0.00,,,0.00,weatherlink.com 1.10,2013-10-23 07:49:00,
2013-10-23 03:04:00,32.5,32.0,29.90,North,355,2.0,5.0,97,0.00,,,0.00,weatherlink.com 1.10,2013-10-23 08:04:00,
2013-10-23 03:19:00,32.1,31.0,29.90,North,354,2.0,5.0,97,0.00,,,0.00,weatherlink.com 1.10,2013-10-23 08:19:00,
2013-10-23 03:34:00,31.8,31.0,29.90,North,354,1.0,4.0,97,0.00,,,0.00,weatherlink.com 1.10,2013-10-23 08:34:00,
2013-10-23 03:49:00,31.6,31.0,29.91,North,354,1.0,5.0,97,0.00,,,0.00,weatherlink.com 1.10,2013-10-23 08:49:00,
2013-10-23 04:04:00,31.3,31.0,29.91,North,354,0.0,4.0,97,0.00,,,0.00,weatherlink.com 1.10,2013-10-23 09:04:00,
2013-10-23 04:19:00,31.2,31.0,29.91,North,354,1.0,5.0,97,0.00,,,0.00,weatherlink.com 1.10,2013-10-23 09:19:00,
2013-10-23 04:34:00,31.0,30.0,29.92,North,354,1.0,4.0,97,0.00,,,0.00,weatherlink.com 1.10,2013-10-23 09:34:00,
2013-10-23 04:49:00,30.9,30.0,29.92,North,354,1.0,4.0,97,0.00,,,0.00,weatherlink.com 1.10,2013-10-23 09:49:00,
2013-10-23 05:04:00,30.9,30.0,29.92,North,354,0.0,4.0,97,0.00,,,0.00,weatherlink.com 1.10,2013-10-23 10:04:00,
2013-10-23 05:19:00,30.8,30.0,29.93,North,353,2.0,4.0,96,0.00,,,0.00,weatherlink.com 1.10,2013-10-23 10:19:00,
2013-10-23 05:34:00,30.8,30.0,29.93,North,353,1.0,4.0,96,0.00,,,0.00,weatherlink.com 1.10,2013-10-23 10:34:00,
2013-10-23 05:49:00,30.6,30.0,29.93,North,353,0.0,3.0,96,0.00,,,0.00,weatherlink.com 1.10,2013-10-23 10:49:00,
2013-10-23 06:04:00,30.4,29.0,29.94,North,353,2.0,3.0,96,0.00,,,0.00,weatherlink.com 1.10,2013-10-23 11:04:00,
2013-10-23 06:19:00,30.3,29.0,29.93,North,353,1.0,4.0,96,0.00,,,0.00,weatherlink.com 1.10,2013-10-23 11:19:00,
2013-10-23 06:34:00,30.2,29.0,29.94,North,353,1.0,3.0,96,0.00,,,0.00,weatherlink.com 1.10,2013-10-23 11:34:00,
2013-10-23 06:49:00,30.0,29.0,29.94,North,353,2.0,2.0,96,0.00,,,0.00,weatherlink.com 1.10,2013-10-23 11:49:00,
2013-10-23 07:04:00,29.9,29.0,29.95,North,353,0.0,2.0,96,0.00,,,0.00,weatherlink.com 1.10,2013-10-23 12:04:00,
2013-10-23 07:19:00,29.7,29.0,29.95,North,353,1.0,3.0,96,0.00,,,0.00,weatherlink.com 1.10,2013-10-23 12:19:00,
2013-10-23 07:35:00,29.8,29.0,29.96,North,353,2.0,4.0,96,0.00,,,0.00,weatherlink.com 1.10,2013-10-23 12:35:00,
2013-10-23 07:50:00,29.9,29.0,29.97,North,353,1.0,4.0,96,0.00,,,0.00,weatherlink.com 1.10,2013-10-23 12:50:00,
2013-10-23 08:05:00,30.2,29.0,29.97,North,353,0.0,5.0,96,0.00,,,0.00,weatherlink.com 1.10,2013-10-23 13:05:00,
2013-10-23 08:20:00,30.8,30.0,29.98,North,350,3.0,5.0,96,0.00,,,0.00,weatherlink.com 1.10,2013-10-23 13:20:00,
2013-10-23 08:35:00,31.6,31.0,29.98,NNW,346,0.0,7.0,96,0.00,,,0.00,weatherlink.com 1.10,2013-10-23 13:35:00,
2013-10-23 08:50:00,31.9,31.0,29.98,NW,306,2.0,8.0,95,0.00,,,0.00,weatherlink.com 1.10,2013-10-23 13:50:00,
2013-10-23 09:05:00,32.5,31.0,29.99,NW,308,4.0,6.0,95,0.00,,,0.00,weatherlink.com 1.10,2013-10-23 14:05:00,
2013-10-23 09:20:00,33.5,32.0,29.99,WNW,300,7.0,9.0,94,0.00,,,0.00,weatherlink.com 1.10,2013-10-23 14:20:00,
2013-10-23 09:35:00,34.6,33.0,29.99,WNW,294,3.0,7.0,93,0.01,,,0.01,weatherlink.com 1.10,2013-10-23 14:35:00,
2013-10-23 09:50:00,35.3,33.0,30.00,NW,319,6.0,7.0,91,0.01,,,0.01,weatherlink.com 1.10,2013-10-23 14:50:00,
2013-10-23 10:05:00,36.6,34.0,30.00,NNW,338,4.0,8.0,89,0.01,,,0.01,weatherlink.com 1.10,2013-10-23 15:05:00,
2013-10-23 10:20:00,37.5,34.0,30.00,North,349,2.0,10.0,87,0.01,,,0.01,weatherlink.com 1.10,2013-10-23 15:20:00,
2013-10-23 10:35:00,38.4,34.0,30.00,West,274,5.0,10.0,84,0.00,,,0.01,weatherlink.com 1.10,2013-10-23 15:35:00,
2013-10-23 10:50:00,39.4,34.0,30.00,North,353,4.0,10.0,81,0.00,,,0.01,weatherlink.com 1.10,2013-10-23 15:50:00,
2013-10-23 11:05:00,39.9,34.0,30.00,North,355,3.0,9.0,78,0.00,,,0.01,weatherlink.com 1.10,2013-10-23 16:05:00,
2013-10-23 11:20:00,40.2,31.0,30.01,WNW,284,5.0,13.0,71,0.00,,,0.01,weatherlink.com 1.10,2013-10-23 16:20:00,
2013-10-23 11:35:00,41.0,31.0,30.01,NNW,347,10.0,13.0,67,0.00,,,0.01,weatherlink.com 1.10,2013-10-23 16:35:00,
2013-10-23 11:50:00,41.1,31.0,30.00,SW,235,6.0,13.0,68,0.00,,,0.01,weatherlink.com 1.10,2013-10-23 16:50:00,
2013-10-23 12:05:00,41.5,31.0,30.00,NNW,328,8.0,17.0,66,0.00,,,0.01,weatherlink.com 1.10,2013-10-23 17:05:00,
2013-10-23 12:20:00,41.8,31.0,30.00,NW,321,6.0,12.0,65,0.00,,,0.01,weatherlink.com 1.10,2013-10-23 17:20:00,
2013-10-23 12:35:00,42.2,31.0,30.00,WNW,295,7.0,12.0,65,0.00,,,0.01,weatherlink.com 1.10,2013-10-23 17:35:00,
2013-10-23 12:50:00,42.2,30.0,29.99,NW,325,3.0,12.0,63,0.00,,,0.01,weatherlink.com 1.10,2013-10-23 17:50:00,
2013-10-23 13:05:00,42.5,31.0,29.99,North,349,1.0,13.0,63,0.00,,,0.01,weatherlink.com 1.10,2013-10-23 18:05:00,
2013-10-23 13:20:00,42.4,30.0,29.99,NW,324,5.0,14.0,61,0.00,,,0.01,weatherlink.com 1.10,2013-10-23 18:20:00,
2013-10-23 13:35:00,42.9,29.0,29.99,NW,323,7.0,14.0,59,0.00,,,0.01,weatherlink.com 1.10,2013-10-23 18:35:00,
2013-10-23 13:50:00,42.7,29.0,29.98,NNW,336,0.0,12.0,58,0.00,,,0.01,weatherlink.com 1.10,2013-10-23 18:50:00,
2013-10-23 14:05:00,42.7,29.0,29.98,NW,323,4.0,12.0,58,0.00,,,0.01,weatherlink.com 1.10,2013-10-23 19:05:00,
2013-10-23 14:20:00,42.9,28.0,29.98,West,269,8.0,13.0,56,0.00,,,0.01,weatherlink.com 1.10,2013-10-23 19:20:00,
2013-10-23 14:35:00,42.6,30.0,29.99,SW,236,10.0,11.0,61,0.00,,,0.01,weatherlink.com 1.10,2013-10-23 19:35:00,
2013-10-23 14:50:00,42.7,30.0,29.99,West,279,7.0,12.0,62,0.00,,,0.01,weatherlink.com 1.10,2013-10-23 19:50:00,
2013-10-23 15:05:00,42.2,29.0,29.99,WNW,292,0.0,11.0,60,0.00,,,0.01,weatherlink.com 1.10,2013-10-23 20:05:00,
2013-10-23 15:20:00,42.4,29.0,29.99,West,279,2.0,9.0,60,0.00,,,0.01,weatherlink.com 1.10,2013-10-23 20:20:00,
2013-10-23 15:36:00,43.0,28.0,29.99,West,274,5.0,11.0,55,0.00,,,0.01,weatherlink.com 1.10,2013-10-23 20:36:00,
2013-10-23 15:51:00,42.8,28.0,30.00,WNW,284,7.0,10.0,57,0.00,,,0.01,weatherlink.com 1.10,2013-10-23 20:51:00,
2013-10-23 16:06:00,42.5,29.0,30.00,WNW,290,2.0,12.0,59,0.00,,,0.01,weatherlink.com 1.10,2013-10-23 21:06:00,
2013-10-23 16:21:00,42.3,29.0,30.00,WNW,301,6.0,9.0,60,0.00,,,0.01,weatherlink.com 1.10,2013-10-23 21:21:00,
2013-10-23 16:36:00,41.8,30.0,30.00,NW,305,4.0,13.0,64,0.00,,,0.01,weatherlink.com 1.10,2013-10-23 21:36:00,
2013-10-23 16:51:00,41.5,30.0,29.99,NNW,343,4.0,10.0,65,0.00,,,0.01,weatherlink.com 1.10,2013-10-23 21:51:00,
2013-10-23 17:06:00,41.1,31.0,29.99,NNW,327,2.0,6.0,68,0.00,,,0.01,weatherlink.com 1.10,2013-10-23 22:06:00,
2013-10-23 17:21:00,40.8,32.0,30.00,NNW,330,3.0,4.0,70,0.00,,,0.01,weatherlink.com 1.10,2013-10-23 22:21:00,
2013-10-23 17:36:00,40.6,31.0,30.00,West,274,3.0,9.0,69,0.00,,,0.01,weatherlink.com 1.10,2013-10-23 22:36:00,
2013-10-23 17:51:00,40.9,29.0,30.00,WNW,294,5.0,8.0,62,0.00,,,0.01,weatherlink.com 1.10,2013-10-23 22:51:00,
2013-10-23 18:05:00,40.8,29.0,30.00,SW,233,2.0,7.0,64,0.00,,,0.01,weatherlink.com 1.10,2013-10-23 23:05:00,
2013-10-23 18:21:00,40.6,30.0,30.00,WSW,252,2.0,5.0,65,0.00,,,0.01,weatherlink.com 1.10,2013-10-23 23:21:00,
2013-10-23 18:36:00,40.3,30.0,30.00,WSW,251,3.0,5.0,67,0.00,,,0.01,weatherlink.com 1.10,2013-10-23 23:36:00,
2013-10-23 18:51:00,40.1,31.0,30.01,WSW,252,4.0,5.0,69,0.00,,,0.01,weatherlink.com 1.10,2013-10-23 23:51:00,
2013-10-23 19:06:00,39.9,31.0,30.01,WSW,252,2.0,7.0,71,0.00,,,0.01,weatherlink.com 1.10,2013-10-24 00:06:00,
2013-10-23 19:21:00,39.5,31.0,30.02,WSW,255,1.0,6.0,72,0.00,,,0.01,weatherlink.com 1.10,2013-10-24 00:21:00,
2013-10-23 19:36:00,39.2,32.0,30.02,WSW,254,3.0,6.0,74,0.00,,,0.01,weatherlink.com 1.10,2013-10-24 00:36:00,
2013-10-23 19:51:00,39.2,32.0,30.02,West,263,1.0,7.0,75,0.00,,,0.01,weatherlink.com 1.10,2013-10-24 00:51:00,
2013-10-23 20:06:00,39.3,32.0,30.02,WSW,258,1.0,5.0,75,0.00,,,0.01,weatherlink.com 1.10,2013-10-24 01:06:00,
2013-10-23 20:21:00,39.3,32.0,30.02,West,261,1.0,7.0,74,0.00,,,0.01,weatherlink.com 1.10,2013-10-24 01:21:00,
2013-10-23 20:36:00,39.3,31.0,30.02,WNW,284,6.0,7.0,73,0.00,,,0.01,weatherlink.com 1.10,2013-10-24 01:36:00,
2013-10-23 21:06:00,39.2,31.0,30.03,WNW,297,3.0,5.0,72,0.00,,,0.01,weatherlink.com 1.10,2013-10-24 02:06:00,
2013-10-23 21:21:00,39.0,31.0,30.02,West,262,3.0,7.0,72,0.00,,,0.01,weatherlink.com 1.10,2013-10-24 02:21:00,
2013-10-23 21:36:00,38.9,31.0,30.03,West,270,3.0,6.0,72,0.00,,,0.01,weatherlink.com 1.10,2013-10-24 02:36:00,
2013-10-23 21:51:00,38.7,30.0,30.03,West,274,4.0,6.0,72,0.00,,,0.01,weatherlink.com 1.10,2013-10-24 02:51:00,
2013-10-23 22:06:00,38.6,30.0,30.03,West,274,1.0,4.0,72,0.00,,,0.01,weatherlink.com 1.10,2013-10-24 03:06:00,
2013-10-23 22:21:00,38.4,30.0,30.03,West,274,2.0,6.0,72,0.00,,,0.01,weatherlink.com 1.10,2013-10-24 03:21:00,
2013-10-23 22:36:00,38.4,30.0,30.03,West,274,3.0,7.0,73,0.00,,,0.01,weatherlink.com 1.10,2013-10-24 03:36:00,
2013-10-23 22:51:00,38.5,30.0,30.03,West,269,1.0,10.0,72,0.00,,,0.01,weatherlink.com 1.10,2013-10-24 03:51:00,
2013-10-23 23:06:00,38.4,30.0,30.02,West,265,2.0,6.0,73,0.00,,,0.01,weatherlink.com 1.10,2013-10-24 04:06:00,
2013-10-23 23:21:00,38.2,30.0,30.02,NW,308,3.0,8.0,73,0.00,,,0.01,weatherlink.com 1.10,2013-10-24 04:21:00,
2013-10-23 23:36:00,38.2,30.0,30.02,WNW,296,3.0,10.0,73,0.00,,,0.01,weatherlink.com 1.10,2013-10-24 04:36:00,
2013-10-23 23:51:00,38.1,31.0,30.03,WNW,284,2.0,8.0,74,0.00,,,0.01,weatherlink.com 1.10,2013-10-24 04:51:00,